createdAt,value
2022-12-05T00:01:44.975Z,19.00
2022-12-05T00:04:47.676Z,16.90
2022-12-05T00:07:50.717Z,17.20
2022-12-05T00:10:53.403Z,16.87
2022-12-05T00:13:59.107Z,17.83
2022-12-05T00:17:01.874Z,16.97
2022-12-05T00:20:05.658Z,17.27
2022-12-05T00:23:08.290Z,17.67
2022-12-05T00:26:11.602Z,17.77
2022-12-05T00:29:15.614Z,16.60
2022-12-05T00:32:18.339Z,17.33
2022-12-05T00:35:21.040Z,17.17
2022-12-05T00:38:23.668Z,17.10
2022-12-05T00:41:28.527Z,16.50
2022-12-05T00:44:33.045Z,16.60
2022-12-05T00:47:36.685Z,16.13
2022-12-05T00:50:39.453Z,17.73
2022-12-05T00:53:43.045Z,15.87
2022-12-05T00:56:46.511Z,16.33
2022-12-05T00:59:50.649Z,17.10
2022-12-05T01:02:53.276Z,15.50
2022-12-05T01:05:55.930Z,16.53
2022-12-05T01:08:59.041Z,16.27
2022-12-05T01:12:01.714Z,16.77
2022-12-05T01:15:06.561Z,16.20
2022-12-05T01:18:09.193Z,15.63
2022-12-05T01:21:11.849Z,15.90
2022-12-05T01:24:15.565Z,15.33
2022-12-05T01:27:18.173Z,15.07
2022-12-05T01:30:22.337Z,14.50
2022-12-05T01:33:25.170Z,14.30
2022-12-05T01:36:29.152Z,15.27
2022-12-05T01:39:31.789Z,14.83
2022-12-05T01:42:34.535Z,15.03
2022-12-05T01:45:41.551Z,14.47
2022-12-05T01:48:44.514Z,14.47
2022-12-05T01:51:51.089Z,14.80
2022-12-05T01:54:57.469Z,14.37
2022-12-05T01:58:01.752Z,15.33
2022-12-05T02:01:05.967Z,14.70
2022-12-05T02:04:10.072Z,15.23
2022-12-05T02:07:12.800Z,14.90
2022-12-05T02:10:16.249Z,14.63
2022-12-05T02:13:35.457Z,14.23
2022-12-05T02:16:48.674Z,15.37
2022-12-05T02:20:05.668Z,13.83
2022-12-05T02:23:34.640Z,14.40
2022-12-05T02:26:54.188Z,14.07
2022-12-05T02:30:10.563Z,14.67
2022-12-05T02:33:22.106Z,14.47
2022-12-05T02:36:33.878Z,15.07
2022-12-05T02:39:46.347Z,14.10
2022-12-05T02:42:54.317Z,13.27
2022-12-05T02:46:01.813Z,14.03
2022-12-05T02:49:09.429Z,14.70
2022-12-05T02:52:16.196Z,13.67
2022-12-05T02:55:20.950Z,14.50
2022-12-05T02:58:27.863Z,13.60
2022-12-05T03:01:33.509Z,14.20
2022-12-05T03:04:36.786Z,14.23
2022-12-05T03:07:42.280Z,15.07
2022-12-05T03:10:48.474Z,13.47
2022-12-05T03:13:54.885Z,14.17
2022-12-05T03:17:03.146Z,13.83
2022-12-05T03:20:10.222Z,13.07
2022-12-05T03:23:16.587Z,13.63
2022-12-05T03:26:33.130Z,13.90
2022-12-05T03:29:40.033Z,14.27
2022-12-05T03:32:50.528Z,13.87
2022-12-05T03:36:03.045Z,14.77
2022-12-05T03:39:12.462Z,15.43
2022-12-05T03:42:18.480Z,14.93
2022-12-05T03:45:28.901Z,14.43
2022-12-05T03:48:39.468Z,14.20
2022-12-05T03:51:47.033Z,14.57
2022-12-05T03:54:54.528Z,15.67
2022-12-05T03:58:02.045Z,16.13
2022-12-05T04:01:07.968Z,15.80
2022-12-05T04:04:18.197Z,15.77
2022-12-05T04:07:22.672Z,16.10
2022-12-05T04:10:29.588Z,15.37
2022-12-05T04:13:35.836Z,16.53
2022-12-05T04:17:02.182Z,16.97
2022-12-05T04:20:28.946Z,16.13
2022-12-05T04:23:31.980Z,16.17
2022-12-05T04:26:35.291Z,14.77
2022-12-05T04:29:44.352Z,16.27
2022-12-05T04:32:51.366Z,15.63
2022-12-05T04:35:59.069Z,15.37
2022-12-05T04:39:05.507Z,14.77
2022-12-05T04:42:11.638Z,14.83
2022-12-05T04:45:18.776Z,15.10
2022-12-05T04:48:26.279Z,15.00
2022-12-05T04:51:35.235Z,14.47
2022-12-05T04:54:42.599Z,13.73
2022-12-05T04:57:54.085Z,13.93
2022-12-05T05:01:03.534Z,13.37
2022-12-05T05:04:13.025Z,14.07
2022-12-05T05:07:17.014Z,14.03
2022-12-05T05:10:27.905Z,14.83
2022-12-05T05:13:30.554Z,13.87
2022-12-05T05:16:36.022Z,14.20
2022-12-05T05:19:38.670Z,15.13
2022-12-05T05:22:42.648Z,14.40
2022-12-05T05:25:45.356Z,15.57
2022-12-05T05:28:49.165Z,15.90
2022-12-05T05:31:51.812Z,16.80
2022-12-05T05:34:54.437Z,17.60
2022-12-05T05:37:58.656Z,18.07
2022-12-05T05:41:01.309Z,18.30
2022-12-05T05:44:05.355Z,19.80
2022-12-05T05:47:08.171Z,20.73
2022-12-05T05:50:16.324Z,20.73
2022-12-05T05:53:23.590Z,21.43
2022-12-05T05:56:26.933Z,21.30
2022-12-05T05:59:30.099Z,23.13
2022-12-05T06:02:34.532Z,22.20
2022-12-05T06:05:37.313Z,22.37
2022-12-05T06:08:43.428Z,24.00
2022-12-05T06:11:46.040Z,24.47
2022-12-05T06:14:48.871Z,23.47
2022-12-05T06:17:51.544Z,24.33
2022-12-05T06:20:55.006Z,22.53
2022-12-05T06:23:58.984Z,24.03
2022-12-05T06:27:01.626Z,23.10
2022-12-05T06:30:04.969Z,25.13
2022-12-05T06:33:07.597Z,25.77
2022-12-05T06:36:13.021Z,25.07
2022-12-05T06:39:16.993Z,26.10
2022-12-05T06:42:19.611Z,27.60
2022-12-05T06:45:22.338Z,26.73
2022-12-05T06:48:25.021Z,27.80
2022-12-05T06:51:27.627Z,26.33
2022-12-05T06:54:31.670Z,25.60
2022-12-05T06:57:34.288Z,27.10
2022-12-05T07:00:54.658Z,28.43
2022-12-05T07:03:57.346Z,26.87
2022-12-05T07:07:01.984Z,25.73
2022-12-05T07:10:07.693Z,25.13
2022-12-05T07:13:14.442Z,23.90
2022-12-05T07:16:18.462Z,24.13
2022-12-05T07:19:21.126Z,23.70
2022-12-05T07:22:25.001Z,25.20
2022-12-05T07:25:28.965Z,23.23
2022-12-05T07:28:31.627Z,23.30
2022-12-05T07:31:36.524Z,23.30
2022-12-05T07:34:39.739Z,22.20
2022-12-05T07:37:42.460Z,23.83
2022-12-05T07:40:46.458Z,22.63
2022-12-05T07:43:49.208Z,22.73
2022-12-05T07:46:51.860Z,23.03
2022-12-05T07:49:54.463Z,22.57
2022-12-05T07:52:57.090Z,22.27
2022-12-05T07:56:01.951Z,22.67
2022-12-05T07:59:04.632Z,22.30
2022-12-05T08:02:07.423Z,21.20
2022-12-05T08:05:10.425Z,21.23
2022-12-05T08:08:13.272Z,21.40
2022-12-05T08:11:19.332Z,20.83
2022-12-05T08:14:22.040Z,20.77
2022-12-05T08:17:24.661Z,19.60
2022-12-05T08:20:27.334Z,20.33
2022-12-05T08:23:31.171Z,18.50
2022-12-05T08:26:37.305Z,20.07
2022-12-05T08:29:39.930Z,19.73
2022-12-05T08:32:42.587Z,19.33
2022-12-05T08:35:45.298Z,19.23
2022-12-05T08:38:48.314Z,18.13
2022-12-05T08:41:52.288Z,18.13
2022-12-05T08:44:54.973Z,17.57
2022-12-05T08:47:57.774Z,18.00
2022-12-05T08:51:05.247Z,17.53
2022-12-05T08:54:07.986Z,17.73
2022-12-05T08:57:11.940Z,16.93
2022-12-05T09:00:15.798Z,18.30
2022-12-05T09:03:18.409Z,17.77
2022-12-05T09:06:23.263Z,17.17
2022-12-05T09:09:25.900Z,15.17
2022-12-05T09:12:29.902Z,16.97
2022-12-05T09:15:32.620Z,17.37
2022-12-05T09:18:35.495Z,17.33
2022-12-05T09:21:38.106Z,16.53
2022-12-05T09:24:40.697Z,18.03
2022-12-05T09:27:44.715Z,16.43
2022-12-05T09:30:57.122Z,17.80
2022-12-05T09:33:59.778Z,15.20
2022-12-05T09:37:23.269Z,16.40
2022-12-05T09:40:25.313Z,15.60
2022-12-05T09:43:39.172Z,16.47
2022-12-05T09:46:53.209Z,15.27
2022-12-05T09:50:01.340Z,15.83
2022-12-05T09:53:10.685Z,14.83
2022-12-05T09:56:22.477Z,15.17
2022-12-05T09:59:26.516Z,14.50
2022-12-05T10:02:42.724Z,14.70
2022-12-05T10:05:53.314Z,14.67
2022-12-05T10:09:21.782Z,13.73
2022-12-05T10:12:43.030Z,15.07
2022-12-05T10:15:55.681Z,13.97
2022-12-05T10:19:04.030Z,13.43
2022-12-05T10:22:20.207Z,13.00
2022-12-05T10:25:26.694Z,13.87
2022-12-05T10:28:34.766Z,13.50
2022-12-05T10:31:40.429Z,14.20
2022-12-05T10:34:45.337Z,13.10
2022-12-05T10:37:50.767Z,13.93
2022-12-05T10:40:58.103Z,13.07
2022-12-05T10:44:01.001Z,12.73
2022-12-05T10:47:05.010Z,12.17
2022-12-05T10:50:21.511Z,12.50
2022-12-05T10:53:27.925Z,13.77
2022-12-05T10:56:42.374Z,13.30
2022-12-05T10:59:47.676Z,12.77
2022-12-05T11:02:53.092Z,13.57
2022-12-05T11:05:58.402Z,12.60
2022-12-05T11:09:07.157Z,13.47
2022-12-05T11:12:19.364Z,12.63
2022-12-05T11:15:25.369Z,12.70
2022-12-05T11:18:32.672Z,13.00
2022-12-05T11:21:43.297Z,12.87
2022-12-05T11:24:45.926Z,13.37
2022-12-05T11:27:48.568Z,13.07
2022-12-05T11:30:59.424Z,12.17
2022-12-05T11:34:11.286Z,11.80
2022-12-05T11:37:18.482Z,11.90
2022-12-05T11:40:32.707Z,11.83
2022-12-05T11:43:53.743Z,12.53
2022-12-05T11:47:11.444Z,11.97
2022-12-05T11:50:25.827Z,12.13
2022-12-05T11:54:01.389Z,11.53
2022-12-05T11:57:12.208Z,12.23
2022-12-05T12:00:22.185Z,12.10
2022-12-05T12:03:54.750Z,11.27
2022-12-05T12:07:11.270Z,11.30
2022-12-05T12:10:25.728Z,11.57
2022-12-05T12:13:46.260Z,11.77
2022-12-05T12:16:58.934Z,11.07
2022-12-05T12:20:29.223Z,10.83
2022-12-05T12:23:44.581Z,11.37
2022-12-05T12:26:55.979Z,11.40
2022-12-05T12:30:06.455Z,11.13
2022-12-05T12:33:16.303Z,10.57
2022-12-05T12:36:25.874Z,11.27
2022-12-05T12:39:41.764Z,10.37
2022-12-05T12:42:56.531Z,11.23
2022-12-05T12:46:13.635Z,10.47
2022-12-05T12:49:35.815Z,10.67
2022-12-05T12:53:00.700Z,11.07
2022-12-05T12:56:16.003Z,10.07
2022-12-05T12:59:34.017Z,10.60
2022-12-05T13:02:43.301Z,9.57
2022-12-05T13:05:50.006Z,10.70
2022-12-05T13:08:57.433Z,10.17
2022-12-05T13:12:10.608Z,9.80
2022-12-05T13:15:16.225Z,9.07
2022-12-05T13:18:21.885Z,9.70
2022-12-05T13:21:25.801Z,10.17
2022-12-05T13:24:29.705Z,10.10
2022-12-05T13:27:33.763Z,10.13
2022-12-05T13:30:56.687Z,9.53
2022-12-05T13:33:59.309Z,9.93
2022-12-05T13:37:29.155Z,10.23
2022-12-05T13:40:52.169Z,11.07
2022-12-05T13:44:05.980Z,10.00
2022-12-05T13:47:25.767Z,10.57
2022-12-05T13:50:37.002Z,9.93
2022-12-05T13:53:43.232Z,10.37
2022-12-05T13:56:52.328Z,10.53
2022-12-05T14:00:06.121Z,9.73
2022-12-05T14:03:19.560Z,8.90
2022-12-05T14:06:58.568Z,9.90
2022-12-05T14:10:01.357Z,10.27
2022-12-05T14:13:25.261Z,10.20
2022-12-05T14:16:50.733Z,9.27
2022-12-05T14:20:07.260Z,9.80
2022-12-05T14:23:24.878Z,8.90
2022-12-05T14:26:49.337Z,9.53
2022-12-05T14:30:03.620Z,8.77
2022-12-05T14:33:15.436Z,9.20
2022-12-05T14:36:29.087Z,9.27
2022-12-05T14:39:39.887Z,9.20
2022-12-05T14:42:45.022Z,9.03
2022-12-05T14:46:00.068Z,9.10
2022-12-05T14:49:52.751Z,9.90
2022-12-05T14:53:20.199Z,10.40
2022-12-05T14:56:26.212Z,10.17
2022-12-05T14:59:32.302Z,8.23
2022-12-05T15:02:40.440Z,9.57
2022-12-05T15:05:45.146Z,8.27
2022-12-05T15:08:51.118Z,8.53
2022-12-05T15:11:54.248Z,8.80
2022-12-05T15:15:14.473Z,8.73
2022-12-05T15:18:23.446Z,8.03
2022-12-05T15:21:33.587Z,7.43
2022-12-05T15:24:38.811Z,8.10
2022-12-05T15:27:41.547Z,7.33
2022-12-05T15:30:44.589Z,7.93
2022-12-05T15:33:52.965Z,6.80
2022-12-05T15:37:03.762Z,7.33
2022-12-05T15:40:14.176Z,6.97
2022-12-05T15:43:30.823Z,7.37
2022-12-05T15:46:33.443Z,7.40
2022-12-05T15:49:36.186Z,7.50
2022-12-05T15:52:46.488Z,6.93
2022-12-05T15:55:52.702Z,6.80
2022-12-05T15:58:59.790Z,6.73
2022-12-05T16:02:12.111Z,6.93
2022-12-05T16:05:23.311Z,7.07
2022-12-05T16:08:31.178Z,7.53
2022-12-05T16:11:33.884Z,7.70
2022-12-05T16:18:05.940Z,8.10
2022-12-05T16:21:36.006Z,7.70
2022-12-05T16:24:43.422Z,7.93
2022-12-05T16:27:58.206Z,7.10
2022-12-05T16:31:03.202Z,7.57
2022-12-05T16:34:08.089Z,7.63
2022-12-05T16:37:19.724Z,7.30
2022-12-05T16:40:24.041Z,8.10
2022-12-05T16:43:44.332Z,7.30
2022-12-05T16:46:47.524Z,7.83
2022-12-05T16:49:50.237Z,7.50
2022-12-05T16:53:02.046Z,7.43
2022-12-05T16:56:07.953Z,8.33
2022-12-05T16:59:19.836Z,8.37
2022-12-05T17:02:22.515Z,7.37
2022-12-05T17:05:25.592Z,8.20
2022-12-05T17:08:28.279Z,7.90
2022-12-05T17:11:34.002Z,9.13
2022-12-05T17:14:36.698Z,9.13
2022-12-05T17:17:39.493Z,8.23
2022-12-05T17:20:44.274Z,9.07
2022-12-05T17:23:49.227Z,8.50
2022-12-05T17:26:53.222Z,8.53
2022-12-05T17:29:56.187Z,8.87
2022-12-05T17:32:59.034Z,8.00
2022-12-05T17:36:01.818Z,8.93
2022-12-05T17:39:04.528Z,9.00
2022-12-05T17:42:09.373Z,10.57
2022-12-05T17:45:14.659Z,9.97
2022-12-05T17:48:17.326Z,9.87
2022-12-05T17:51:20.485Z,10.27
2022-12-05T17:54:23.105Z,9.47
2022-12-05T17:57:27.080Z,9.50
2022-12-05T18:00:29.769Z,8.87
2022-12-05T18:03:32.527Z,9.20
2022-12-05T18:06:35.225Z,8.03
2022-12-05T18:09:37.835Z,8.53
2022-12-05T18:12:42.104Z,8.63
2022-12-05T18:15:47.375Z,8.60
2022-12-05T18:18:50.013Z,8.97
2022-12-05T18:21:52.626Z,9.43
2022-12-05T18:24:57.315Z,9.63
2022-12-05T18:28:01.776Z,8.73
2022-12-05T18:31:07.083Z,9.50
2022-12-05T18:34:10.085Z,8.87
2022-12-05T18:37:13.166Z,9.13
2022-12-05T18:40:15.953Z,9.03
2022-12-05T18:43:19.919Z,9.10
2022-12-05T18:46:22.959Z,9.40
2022-12-05T18:49:25.840Z,10.07
2022-12-05T18:52:28.456Z,9.90
2022-12-05T18:55:57.990Z,9.97
2022-12-05T18:58:57.284Z,10.67
2022-12-05T19:02:00.446Z,12.50
2022-12-05T19:05:03.149Z,12.43
2022-12-05T19:08:06.174Z,12.57
2022-12-05T19:11:08.893Z,12.87
2022-12-05T19:14:13.250Z,14.17
2022-12-05T19:17:16.103Z,15.57
2022-12-05T19:20:18.839Z,13.13
2022-12-05T19:23:21.530Z,11.80
2022-12-05T19:26:25.081Z,11.23
2022-12-05T19:29:29.037Z,11.23
2022-12-05T19:32:34.302Z,12.20
2022-12-05T19:35:41.053Z,11.37
2022-12-05T19:38:45.908Z,12.03
2022-12-05T19:41:49.374Z,11.97
2022-12-05T19:44:53.373Z,10.83
2022-12-05T19:47:56.014Z,12.60
2022-12-05T19:50:59.849Z,13.67
2022-12-05T19:54:05.092Z,12.63
2022-12-05T19:57:07.864Z,11.80
2022-12-05T20:00:12.938Z,10.60
2022-12-05T20:03:15.674Z,9.50
2022-12-05T20:06:19.511Z,10.10
2022-12-05T20:09:23.289Z,10.40
2022-12-05T20:12:25.966Z,10.40
2022-12-05T20:15:30.299Z,10.13
2022-12-05T20:18:33.964Z,9.77
2022-12-05T20:21:39.379Z,10.90
2022-12-05T20:24:42.069Z,11.07
2022-12-05T20:27:45.624Z,11.37
2022-12-05T20:30:49.885Z,11.23
2022-12-05T20:33:53.802Z,10.73
2022-12-05T20:36:56.404Z,10.03
2022-12-05T20:39:59.362Z,10.30
2022-12-05T20:43:02.262Z,9.50
2022-12-05T20:46:08.896Z,9.17
2022-12-05T20:49:12.960Z,8.97
2022-12-05T20:52:15.620Z,8.90
2022-12-05T20:55:18.605Z,9.00
2022-12-05T20:58:21.642Z,9.40
2022-12-05T21:01:27.247Z,9.00
2022-12-05T21:04:29.881Z,9.20
2022-12-05T21:07:32.502Z,9.43
2022-12-05T21:10:35.399Z,8.50
2022-12-05T21:13:38.221Z,9.13
2022-12-05T21:16:42.225Z,9.63
2022-12-05T21:19:45.451Z,8.87
2022-12-05T21:22:48.064Z,9.57
2022-12-05T21:25:50.696Z,10.20
2022-12-05T21:28:54.118Z,10.17
2022-12-05T21:31:59.491Z,9.97
2022-12-05T21:35:03.316Z,10.07
2022-12-05T21:38:05.919Z,9.07
2022-12-05T21:41:08.750Z,9.27
2022-12-05T21:44:11.390Z,9.87
2022-12-05T21:47:15.589Z,9.13
2022-12-05T21:50:18.439Z,9.17
2022-12-05T21:53:21.966Z,9.43
2022-12-05T21:56:25.409Z,9.10
2022-12-05T21:59:32.185Z,9.10
2022-12-05T22:02:36.195Z,9.90
2022-12-05T22:05:38.818Z,10.27
2022-12-05T22:08:41.659Z,12.40
2022-12-05T22:11:44.406Z,12.73
2022-12-05T22:14:47.046Z,11.77
2022-12-05T22:17:51.053Z,11.50
2022-12-05T22:20:56.741Z,10.93
2022-12-05T22:23:59.371Z,9.90
2022-12-05T22:27:01.966Z,9.40
2022-12-05T22:30:05.324Z,9.97
2022-12-05T22:33:09.381Z,9.10
2022-12-05T22:36:13.945Z,9.07
2022-12-05T22:39:16.561Z,9.60
2022-12-05T22:42:19.165Z,9.17
2022-12-05T22:45:21.805Z,8.60
2022-12-05T22:48:27.361Z,9.20
2022-12-05T22:51:29.948Z,9.07
2022-12-05T22:54:32.674Z,8.67
2022-12-05T22:57:35.265Z,8.73
2022-12-05T23:00:38.461Z,8.50
2022-12-05T23:03:43.622Z,7.83
2022-12-05T23:06:46.360Z,8.40
2022-12-05T23:09:49.103Z,8.37
2022-12-05T23:12:51.831Z,9.10
2022-12-05T23:15:57.836Z,10.13
2022-12-05T23:19:04.493Z,11.13
2022-12-05T23:22:07.127Z,11.60
2022-12-05T23:25:09.950Z,10.87
2022-12-05T23:28:12.596Z,11.17
2022-12-05T23:31:15.631Z,10.97
2022-12-05T23:34:19.909Z,10.73
2022-12-05T23:37:22.524Z,11.50
2022-12-05T23:40:25.307Z,9.97
2022-12-05T23:43:28.398Z,10.63
2022-12-05T23:46:31.203Z,10.53
2022-12-05T23:49:35.179Z,10.60
2022-12-05T23:52:38.388Z,11.07
2022-12-05T23:55:41.004Z,10.20
2022-12-05T23:58:44.363Z,10.20
